Time;durP1;ratioP1;P1;durP2;ratioP2;P2;SDS_P1;SDS_P2;PMS_P1;PMS_P2;Temp;Humidity;BMP_temperature;BMP_pressure;BME280_temperature;BME280_humidity;BME280_pressure;Samples;Min_cycle;Max_cycle;Signal;HPM_P1;HPM_P2
2022/11/07 00:01:52;;;;;;;48.10;34.95;;;6.90;99.90;;;;;;5097058;28;20176;-78
2022/11/07 00:04:17;;;;;;;34.30;27.75;;;6.90;99.90;;;;;;5096630;28;20186;-78
2022/11/07 00:06:43;;;;;;;29.70;24.90;;;7.00;99.90;;;;;;5114842;28;20176;-78
2022/11/07 00:09:09;;;;;;;37.70;29.67;;;7.00;99.90;;;;;;5096785;28;20263;-78
2022/11/07 00:11:34;;;;;;;86.93;63.25;;;7.00;99.90;;;;;;5096877;28;20172;-78
2022/11/07 00:14:00;;;;;;;61.25;46.58;;;7.00;99.90;;;;;;5096486;28;20595;-78
2022/11/07 00:16:27;;;;;;;55.10;42.60;;;7.10;99.90;;;;;;5114726;28;20734;-78
2022/11/07 00:18:53;;;;;;;39.25;30.05;;;7.10;99.90;;;;;;5097373;28;20204;-78
2022/11/07 00:21:18;;;;;;;42.63;32.92;;;7.20;99.90;;;;;;5114466;28;20236;-78
2022/11/07 00:23:44;;;;;;;88.47;67.25;;;7.20;99.90;;;;;;5096284;28;20235;-78
2022/11/07 00:26:13;;;;;;;39.63;34.28;;;7.20;99.90;;;;;;5096182;28;20260;-78
2022/11/07 00:28:41;;;;;;;42.50;35.05;;;7.20;99.90;;;;;;5096443;28;20247;-78
2022/11/07 00:31:08;;;;;;;17.55;15.75;;;7.30;99.90;;;;;;5096523;28;20271;-78
2022/11/07 00:33:33;;;;;;;18.67;16.67;;;7.40;99.90;;;;;;5096121;28;20183;-78
2022/11/07 00:35:59;;;;;;;29.60;24.92;;;7.40;99.90;;;;;;5096035;28;20196;-78
2022/11/07 00:38:25;;;;;;;21.05;16.30;;;7.40;99.90;;;;;;5096039;28;20596;-78
2022/11/07 00:41:02;;;;;;;15.20;13.65;;;7.50;99.90;;;;;;5096875;28;20168;-78
2022/11/07 00:43:28;;;;;;;16.00;12.95;;;7.50;99.90;;;;;;5095855;28;20191;-78
2022/11/07 00:45:55;;;;;;;13.48;12.07;;;7.50;99.90;;;;;;5095902;28;20749;-78
2022/11/07 00:48:20;;;;;;;12.52;11.32;;;7.50;99.90;;;;;;5096202;28;20180;-78
2022/11/07 00:50:46;;;;;;;13.32;11.93;;;7.60;99.90;;;;;;5096153;28;20176;-78
2022/11/07 00:53:12;;;;;;;13.00;11.65;;;7.60;99.90;;;;;;5096660;28;20172;-78
2022/11/07 00:55:38;;;;;;;13.25;11.88;;;7.60;99.90;;;;;;5096124;28;20238;-78
2022/11/07 00:58:04;;;;;;;11.98;10.63;;;7.60;99.90;;;;;;5096343;28;20180;-78
2022/11/07 01:00:30;;;;;;;12.23;10.95;;;7.60;99.90;;;;;;5114183;28;20196;-78
2022/11/07 01:05:40;;;;;;;12.00;10.80;;;7.60;99.90;;;;;;5114114;28;20223;-78
2022/11/07 01:08:05;;;;;;;11.20;10.10;;;7.60;99.90;;;;;;5113738;28;20196;-78
2022/11/07 01:10:31;;;;;;;11.85;10.35;;;7.60;99.90;;;;;;5114740;28;20199;-78
2022/11/07 01:12:56;;;;;;;10.50;9.48;;;7.70;99.90;;;;;;5095689;28;20200;-78
2022/11/07 01:15:22;;;;;;;10.43;9.18;;;7.70;99.90;;;;;;5095451;28;20192;-78
2022/11/07 01:17:48;;;;;;;11.32;10.13;;;7.60;99.90;;;;;;5095907;28;20210;-78
2022/11/07 01:20:13;;;;;;;10.13;9.13;;;7.60;99.90;;;;;;5095905;28;20337;-78
2022/11/07 01:22:39;;;;;;;11.30;9.85;;;7.60;99.90;;;;;;5096416;28;20645;-78
2022/11/07 01:25:04;;;;;;;10.25;9.25;;;7.70;99.90;;;;;;5095457;28;20195;-78
2022/11/07 01:27:31;;;;;;;9.95;8.90;;;7.70;99.90;;;;;;5113817;28;20172;-78
2022/11/07 01:29:56;;;;;;;9.80;8.65;;;7.70;99.90;;;;;;5114047;28;20175;-78
2022/11/07 01:32:22;;;;;;;10.48;9.48;;;7.80;99.90;;;;;;5095797;28;20639;-78
2022/11/07 01:34:47;;;;;;;10.05;9.07;;;7.80;99.90;;;;;;5095380;28;20226;-78
2022/11/07 01:37:13;;;;;;;10.15;9.25;;;7.80;99.90;;;;;;5096349;28;20175;-78
2022/11/07 01:39:38;;;;;;;9.38;8.48;;;7.80;99.90;;;;;;5095650;28;20290;-78
2022/11/07 01:42:04;;;;;;;9.30;8.45;;;7.80;99.90;;;;;;5113533;28;20172;-78
2022/11/07 01:44:39;;;;;;;9.55;8.65;;;7.80;99.90;;;;;;5096157;28;20284;-78
2022/11/07 01:47:05;;;;;;;9.43;8.43;;;7.80;99.90;;;;;;5095236;28;20178;-78
2022/11/07 01:49:36;;;;;;;9.07;8.18;;;7.80;99.90;;;;;;5095592;28;20263;-78
2022/11/07 01:52:16;;;;;;;8.95;7.90;;;7.80;99.90;;;;;;5113422;28;20190;-78
2022/11/07 01:54:54;;;;;;;8.80;7.90;;;7.80;99.90;;;;;;5095501;28;20227;-78
2022/11/07 01:57:24;;;;;;;8.98;8.07;;;7.80;99.90;;;;;;5099979;28;20223;-78
2022/11/07 01:59:53;;;;;;;8.60;7.80;;;7.90;99.90;;;;;;5117454;28;20249;-78
2022/11/07 02:02:18;;;;;;;9.05;7.93;;;7.90;99.90;;;;;;5100128;28;20173;-78
2022/11/07 02:04:44;;;;;;;7.78;7.07;;;7.90;99.90;;;;;;5098907;28;20188;-78
2022/11/07 02:07:18;;;;;;;8.57;7.38;;;7.90;99.90;;;;;;5099688;28;20185;-78
2022/11/07 02:09:44;;;;;;;6.75;5.95;;;7.90;99.90;;;;;;5117135;28;20203;-78
2022/11/07 02:12:10;;;;;;;7.57;6.55;;;8.00;99.90;;;;;;5099766;28;20176;-78
2022/11/07 02:14:36;;;;;;;9.02;7.00;;;8.00;99.90;;;;;;5099712;28;20196;-78
2022/11/07 02:17:01;;;;;;;7.60;6.90;;;8.00;99.90;;;;;;5099522;28;20267;-78
2022/11/07 02:19:40;;;;;;;8.05;7.25;;;7.90;99.90;;;;;;5116826;28;20200;-78
2022/11/07 02:22:24;;;;;;;9.27;6.50;;;7.90;99.90;;;;;;5098613;28;20168;-78
2022/11/07 02:24:53;;;;;;;7.82;7.10;;;8.00;99.90;;;;;;5098422;28;20245;-78
2022/11/07 02:27:23;;;;;;;7.40;6.72;;;7.90;99.90;;;;;;5117043;28;20173;-78
2022/11/07 02:33:22;;;;;;;7.32;6.63;;;7.90;99.90;;;;;;5116919;28;20625;-78
2022/11/07 02:35:49;;;;;;;6.72;6.13;;;7.90;99.90;;;;;;5098310;28;20282;-78
2022/11/07 02:38:35;;;;;;;6.90;6.30;;;7.90;99.90;;;;;;5098498;28;20187;-78
2022/11/07 02:41:08;;;;;;;6.97;6.18;;;7.90;99.90;;;;;;5098259;28;20251;-78
2022/11/07 02:43:36;;;;;;;6.60;6.00;;;8.00;99.90;;;;;;5098325;28;20161;-78
2022/11/07 02:46:07;;;;;;;6.00;5.50;;;8.00;99.90;;;;;;5116574;28;20218;-78
2022/11/07 02:48:44;;;;;;;6.18;5.65;;;8.00;99.90;;;;;;5098775;28;20273;-78
2022/11/07 02:51:10;;;;;;;5.88;5.35;;;7.90;99.90;;;;;;5098203;28;20168;-78
2022/11/07 02:53:36;;;;;;;5.75;5.20;;;7.90;99.90;;;;;;5116481;28;20168;-78
2022/11/07 02:56:01;;;;;;;5.57;5.07;;;7.90;99.90;;;;;;5098434;28;20218;-78
2022/11/07 02:58:27;;;;;;;6.15;5.53;;;7.90;99.90;;;;;;5116319;28;20555;-78
2022/11/07 03:00:52;;;;;;;6.45;5.57;;;7.90;99.90;;;;;;5097830;28;20216;-78
2022/11/07 03:03:18;;;;;;;5.53;4.97;;;7.90;99.90;;;;;;5098225;28;20679;-78
2022/11/07 03:05:44;;;;;;;6.40;5.50;;;7.90;99.90;;;;;;5097544;28;20196;-78
2022/11/07 03:08:09;;;;;;;6.78;5.03;;;7.90;99.90;;;;;;5098155;28;20196;-78
2022/11/07 03:10:35;;;;;;;6.63;5.35;;;7.90;99.90;;;;;;5116200;28;20156;-78
2022/11/07 03:13:00;;;;;;;8.63;5.50;;;7.90;99.90;;;;;;5097657;28;20168;-78
2022/11/07 03:15:26;;;;;;;5.40;4.90;;;7.90;99.90;;;;;;5097568;28;20261;-78
2022/11/07 03:17:52;;;;;;;5.30;4.80;;;7.90;99.90;;;;;;5097828;28;20172;-78
2022/11/07 03:20:18;;;;;;;5.60;5.10;;;7.90;99.90;;;;;;5097460;28;20199;-78
2022/11/07 03:22:45;;;;;;;6.97;5.50;;;8.00;99.90;;;;;;5097455;28;20263;-78
2022/11/07 03:25:20;;;;;;;5.80;5.20;;;8.10;99.90;;;;;;5097617;28;20560;-78
2022/11/07 03:27:47;;;;;;;5.85;5.35;;;8.10;99.90;;;;;;5097416;28;20163;-78
2022/11/07 03:30:13;;;;;;;6.60;5.60;;;8.10;99.90;;;;;;5097207;28;20176;-78
2022/11/07 03:32:38;;;;;;;6.13;5.63;;;8.10;99.90;;;;;;5098067;28;20180;-78
2022/11/07 03:35:04;;;;;;;6.88;5.82;;;8.10;99.90;;;;;;5115635;28;20200;-78
2022/11/07 03:37:30;;;;;;;6.68;6.03;;;8.10;99.90;;;;;;5115254;28;20184;-78
2022/11/07 03:39:56;;;;;;;6.82;6.18;;;8.10;99.90;;;;;;5115505;28;20196;-78
2022/11/07 03:42:21;;;;;;;6.50;5.90;;;8.10;99.90;;;;;;5115616;28;20172;-78
2022/11/07 03:44:47;;;;;;;6.30;5.78;;;8.20;99.90;;;;;;5097258;28;20188;-78
2022/11/07 03:47:12;;;;;;;8.93;5.95;;;8.20;99.90;;;;;;5097112;28;20172;-77
2022/11/07 03:49:38;;;;;;;7.45;5.55;;;8.20;99.90;;;;;;5115376;28;20176;-77
2022/11/07 03:52:04;;;;;;;9.65;6.72;;;8.20;99.90;;;;;;5115342;28;20172;-77
2022/11/07 03:54:29;;;;;;;6.65;6.05;;;8.20;99.90;;;;;;5096861;28;20200;-77
2022/11/07 03:56:55;;;;;;;6.53;5.70;;;8.20;99.90;;;;;;5114940;28;20177;-77
2022/11/07 03:59:20;;;;;;;6.53;5.90;;;8.20;99.90;;;;;;5096713;28;20682;-77
2022/11/07 04:01:46;;;;;;;7.07;6.38;;;8.20;99.90;;;;;;5115168;28;20168;-77
2022/11/07 04:04:12;;;;;;;7.70;6.05;;;8.20;99.90;;;;;;5097478;28;20205;-77
2022/11/07 04:06:37;;;;;;;6.13;5.53;;;8.20;99.90;;;;;;5115082;28;20172;-77
2022/11/07 04:09:04;;;;;;;7.80;6.13;;;8.20;99.90;;;;;;5096425;28;20561;-77
2022/11/07 04:19:41;;;;;;;6.80;6.30;;;8.20;99.90;;;;;;5114194;28;20237;-77
2022/11/07 04:22:07;;;;;;;9.85;6.32;;;8.10;99.90;;;;;;5096412;28;20173;-77
2022/11/07 04:24:32;;;;;;;6.63;6.03;;;8.10;99.90;;;;;;5097384;28;20188;-77
2022/11/07 04:29:42;;;;;;;7.00;6.32;;;8.10;99.90;;;;;;5115004;28;20195;-77
2022/11/07 04:32:07;;;;;;;6.43;5.88;;;8.10;99.90;;;;;;5096574;28;20614;-77
2022/11/07 04:34:33;;;;;;;6.35;5.75;;;8.10;99.90;;;;;;5114480;28;20196;-77
2022/11/07 04:36:59;;;;;;;6.20;5.60;;;8.20;99.90;;;;;;5096100;28;20297;-77
2022/11/07 04:39:24;;;;;;;6.30;5.70;;;8.20;99.90;;;;;;5095973;28;20210;-77
2022/11/07 04:41:50;;;;;;;9.07;6.78;;;8.20;99.90;;;;;;5096031;28;20263;-77
2022/11/07 04:44:15;;;;;;;7.32;6.20;;;8.20;99.90;;;;;;5096232;28;20167;-77
2022/11/07 04:46:41;;;;;;;5.75;5.25;;;8.20;99.90;;;;;;5114893;28;20575;-77
2022/11/07 04:49:06;;;;;;;7.65;5.45;;;8.20;99.90;;;;;;5096094;28;20768;-77
2022/11/07 04:51:32;;;;;;;5.95;5.45;;;8.20;99.90;;;;;;5095811;28;20289;-77
2022/11/07 04:53:57;;;;;;;6.35;5.78;;;8.20;99.90;;;;;;5096420;28;20290;-77
2022/11/07 04:56:23;;;;;;;6.38;5.80;;;8.20;99.90;;;;;;5095753;28;20200;-77
2022/11/07 04:58:48;;;;;;;7.40;5.60;;;8.30;99.90;;;;;;5096008;28;20309;-77
2022/11/07 05:01:14;;;;;;;6.88;6.10;;;8.30;99.90;;;;;;5096026;28;20180;-77
2022/11/07 05:03:39;;;;;;;6.80;6.20;;;8.30;99.90;;;;;;5113908;28;20668;-77
2022/11/07 05:06:05;;;;;;;6.55;6.05;;;8.30;99.90;;;;;;5113999;28;20734;-77
2022/11/07 05:08:31;;;;;;;6.75;6.03;;;8.30;99.90;;;;;;5096171;28;20195;-77
2022/11/07 05:10:56;;;;;;;6.90;6.18;;;8.30;99.90;;;;;;5096040;28;20182;-77
2022/11/07 05:13:22;;;;;;;6.38;5.88;;;8.30;99.90;;;;;;5113943;28;20184;-77
2022/11/07 05:15:48;;;;;;;7.45;6.45;;;8.30;99.90;;;;;;5096160;28;20199;-77
2022/11/07 05:18:14;;;;;;;6.20;5.65;;;8.30;99.90;;;;;;5095507;28;20545;-77
2022/11/07 05:20:40;;;;;;;6.15;5.55;;;8.30;99.90;;;;;;5095669;28;20262;-78
2022/11/07 05:23:13;;;;;;;8.77;6.78;;;8.30;99.90;;;;;;5095482;28;20172;-78
2022/11/07 05:25:50;;;;;;;7.82;6.20;;;8.30;99.90;;;;;;5114296;28;20226;-78
2022/11/07 05:28:18;;;;;;;6.57;5.85;;;8.30;99.90;;;;;;5096434;28;20171;-78
2022/11/07 05:30:44;;;;;;;7.05;6.43;;;8.30;99.90;;;;;;5115745;28;20168;-78
2022/11/07 05:33:11;;;;;;;6.93;6.00;;;8.30;99.90;;;;;;5100677;28;20226;-78
2022/11/07 05:35:38;;;;;;;7.95;6.05;;;8.40;99.90;;;;;;5117807;28;20278;-78
2022/11/07 05:38:03;;;;;;;6.75;5.90;;;8.40;99.90;;;;;;5099803;28;20264;-78
2022/11/07 05:41:19;;;;;;;9.18;7.35;;;8.40;99.90;;;;;;5099986;28;20279;-77
2022/11/07 05:43:45;;;;;;;9.30;8.38;;;8.40;99.90;;;;;;5099441;28;20168;-78
2022/11/07 05:46:11;;;;;;;10.07;7.88;;;8.40;99.90;;;;;;5099365;28;20196;-78
2022/11/07 05:48:36;;;;;;;8.63;7.82;;;8.50;99.90;;;;;;5100305;28;20180;-78
2022/11/07 05:51:04;;;;;;;8.55;7.20;;;8.50;99.90;;;;;;5099711;28;20204;-78
2022/11/07 05:53:30;;;;;;;7.28;6.68;;;8.40;99.90;;;;;;5100472;28;20180;-78
2022/11/07 05:55:55;;;;;;;7.43;6.72;;;8.50;99.90;;;;;;5099036;28;20566;-78
2022/11/07 05:58:22;;;;;;;8.55;6.90;;;8.50;99.90;;;;;;5117287;28;20186;-78
2022/11/07 06:00:48;;;;;;;7.90;6.32;;;8.50;99.90;;;;;;5099968;28;20187;-78
2022/11/07 06:03:14;;;;;;;7.32;6.07;;;8.50;99.90;;;;;;5117214;28;20217;-78
2022/11/07 06:05:41;;;;;;;7.03;6.30;;;8.50;99.90;;;;;;5098931;28;20300;-78
2022/11/07 06:08:10;;;;;;;9.70;6.32;;;8.50;99.90;;;;;;5102906;27;20207;-78
2022/11/07 06:10:36;;;;;;;7.93;6.03;;;8.50;99.90;;;;;;5119316;27;20220;-78
2022/11/07 06:13:04;;;;;;;7.03;6.10;;;8.40;99.90;;;;;;5119278;27;20171;-78
2022/11/07 06:15:32;;;;;;;9.18;6.13;;;8.30;99.90;;;;;;5119444;27;20245;-78
2022/11/07 06:18:06;;;;;;;7.72;5.90;;;8.30;99.90;;;;;;5119161;27;20285;-78
2022/11/07 06:20:33;;;;;;;8.35;5.88;;;8.30;99.90;;;;;;5137537;27;20156;-78
2022/11/07 06:23:00;;;;;;;9.00;5.97;;;8.40;99.90;;;;;;5119073;27;20228;-78
2022/11/07 06:25:27;;;;;;;7.63;6.20;;;8.50;99.90;;;;;;5119287;27;20191;-78
2022/11/07 06:27:52;;;;;;;6.70;5.85;;;8.50;99.90;;;;;;5119044;27;20262;-78
2022/11/07 06:30:18;;;;;;;7.72;5.13;;;8.60;99.90;;;;;;5119694;27;20616;-77
2022/11/07 06:36:08;;;;;;;8.82;5.57;;;8.60;99.90;;;;;;5137493;27;20227;-78
2022/11/07 06:38:35;;;;;;;7.18;5.20;;;8.70;99.90;;;;;;5118618;27;20210;-78
2022/11/07 06:41:21;;;;;;;9.02;7.60;;;8.70;99.90;;;;;;5118189;27;20171;-78
2022/11/07 06:43:48;;;;;;;9.65;6.90;;;8.70;99.90;;;;;;5119652;27;20584;-78
2022/11/07 06:46:16;;;;;;;8.55;6.00;;;8.70;99.90;;;;;;5118821;27;20661;-78
2022/11/07 06:48:41;;;;;;;7.15;5.65;;;8.70;99.90;;;;;;5136886;27;20180;-78
2022/11/07 06:51:18;;;;;;;7.68;5.50;;;8.60;99.90;;;;;;5107669;28;20257;-78
2022/11/07 06:53:43;;;;;;;7.72;5.55;;;8.50;99.90;;;;;;5098643;28;20169;-78
2022/11/07 06:56:13;;;;;;;7.93;5.97;;;8.40;99.90;;;;;;5098115;28;20200;-78
2022/11/07 06:58:39;;;;;;;8.70;5.50;;;8.30;99.90;;;;;;5097893;28;20207;-78
2022/11/07 07:01:07;;;;;;;12.05;6.20;;;8.20;99.90;;;;;;5097982;28;20176;-78
2022/11/07 07:03:32;;;;;;;11.25;6.95;;;8.10;99.90;;;;;;5097879;28;20176;-78
2022/11/07 07:06:02;;;;;;;11.27;6.82;;;8.10;99.90;;;;;;5115959;28;20196;-78
2022/11/07 07:08:28;;;;;;;9.70;6.78;;;8.10;99.90;;;;;;5098187;28;20199;-78
2022/11/07 07:10:54;;;;;;;7.57;6.65;;;8.00;99.90;;;;;;5098431;28;20172;-78
2022/11/07 07:13:20;;;;;;;11.05;7.18;;;8.10;99.90;;;;;;5098288;28;20191;-78
2022/11/07 07:15:56;;;;;;;8.15;6.50;;;8.00;99.90;;;;;;5116105;28;20216;-78
2022/11/07 07:18:22;;;;;;;10.57;6.97;;;8.10;99.90;;;;;;5117254;28;20224;-77
2022/11/07 07:20:49;;;;;;;8.32;6.70;;;8.10;99.90;;;;;;5097688;28;20175;-77
2022/11/07 07:23:16;;;;;;;10.00;6.88;;;8.10;99.90;;;;;;5098007;28;20203;-77
2022/11/07 07:25:41;;;;;;;8.93;6.13;;;8.20;99.90;;;;;;5097396;28;20267;-77
2022/11/07 07:28:07;;;;;;;9.13;6.32;;;8.20;99.90;;;;;;5097440;28;20176;-77
2022/11/07 07:30:32;;;;;;;9.55;6.43;;;8.20;99.90;;;;;;5097735;28;20262;-77
2022/11/07 07:32:58;;;;;;;8.38;6.10;;;8.30;99.90;;;;;;5115518;28;20176;-77
2022/11/07 07:35:23;;;;;;;5.80;5.10;;;8.40;99.90;;;;;;5097240;28;20203;-77
2022/11/07 07:37:50;;;;;;;6.38;5.57;;;8.50;99.90;;;;;;5097165;28;20207;-77
2022/11/07 07:40:17;;;;;;;7.65;4.88;;;8.60;99.90;;;;;;5115606;28;20242;-77
2022/11/07 07:42:43;;;;;;;7.13;4.82;;;8.70;99.90;;;;;;5097198;28;20266;-77
2022/11/07 07:45:13;;;;;;;5.03;4.53;;;8.90;99.90;;;;;;5097332;28;20283;-77
2022/11/07 07:47:40;;;;;;;7.97;4.30;;;9.00;99.90;;;;;;5097009;28;20176;-77
2022/11/07 07:50:07;;;;;;;9.27;3.90;;;9.20;99.90;;;;;;5115178;28;20172;-78
2022/11/07 07:52:33;;;;;;;6.30;3.85;;;9.30;99.90;;;;;;5096629;28;20715;-77
2022/11/07 07:54:58;;;;;;;5.13;3.45;;;9.40;99.90;;;;;;5114860;28;20200;-77
2022/11/07 07:57:24;;;;;;;5.13;3.60;;;9.40;99.90;;;;;;5096859;28;20283;-78
2022/11/07 07:59:49;;;;;;;4.75;3.35;;;9.50;99.90;;;;;;5097046;28;20208;-78
2022/11/07 08:02:15;;;;;;;5.63;3.70;;;9.50;99.90;;;;;;5096779;28;20172;-78
2022/11/07 08:04:41;;;;;;;6.47;3.70;;;9.60;99.90;;;;;;5096319;28;20246;-78
2022/11/07 08:07:08;;;;;;;6.63;3.70;;;9.70;99.90;;;;;;5095748;28;20171;-78
2022/11/07 08:09:36;;;;;;;5.63;3.38;;;9.80;99.90;;;;;;5094547;28;20196;-78
2022/11/07 08:12:03;;;;;;;6.03;3.80;;;9.90;99.90;;;;;;5094867;28;20207;-78
2022/11/07 08:14:29;;;;;;;5.82;3.30;;;10.00;99.90;;;;;;5094769;28;20218;-78
2022/11/07 08:16:55;;;;;;;10.63;3.50;;;10.10;99.90;;;;;;5094869;28;20180;-78
2022/11/07 08:19:21;;;;;;;8.68;3.00;;;10.30;99.90;;;;;;5094895;28;20208;-78
2022/11/07 08:21:47;;;;;;;4.53;3.03;;;10.30;99.90;;;;;;5095227;28;20179;-78
2022/11/07 08:24:12;;;;;;;5.18;2.70;;;10.30;99.90;;;;;;5096203;28;20180;-78
2022/11/07 08:26:38;;;;;;;6.32;2.85;;;10.40;99.90;;;;;;5096655;28;20199;-78
2022/11/07 08:29:04;;;;;;;5.05;2.65;;;10.40;99.90;;;;;;5097106;28;20187;-78
2022/11/07 08:31:30;;;;;;;5.75;2.60;;;10.40;99.90;;;;;;5096535;28;20665;-78
2022/11/07 08:33:59;;;;;;;4.35;2.65;;;10.40;99.90;;;;;;5096358;28;20190;-78
2022/11/07 08:36:26;;;;;;;7.65;2.70;;;10.50;99.90;;;;;;5096129;28;20222;-78
2022/11/07 08:39:18;;;;;;;8.07;2.67;;;10.40;99.90;;;;;;5096819;28;20192;-78
2022/11/07 08:41:44;;;;;;;7.75;2.85;;;10.50;99.90;;;;;;5096105;28;20218;-78
2022/11/07 08:44:10;;;;;;;4.80;2.58;;;10.60;99.90;;;;;;5096890;28;20203;-78
2022/11/07 08:46:35;;;;;;;6.15;2.83;;;10.70;99.90;;;;;;5096234;28;20203;-78
2022/11/07 08:49:01;;;;;;;5.93;2.45;;;10.80;99.90;;;;;;5096362;28;20188;-78
2022/11/07 08:51:26;;;;;;;10.07;2.92;;;10.80;99.90;;;;;;5096142;28;20216;-78
2022/11/07 08:53:52;;;;;;;8.32;2.90;;;11.00;99.90;;;;;;5095947;28;20176;-78
2022/11/07 08:56:17;;;;;;;4.00;2.42;;;11.00;99.90;;;;;;5096147;28;20207;-78
2022/11/07 08:58:43;;;;;;;5.80;2.42;;;11.00;99.90;;;;;;5095877;28;20204;-78
2022/11/07 09:01:09;;;;;;;5.47;2.67;;;10.90;99.90;;;;;;5114418;28;20168;-78
2022/11/07 09:03:36;;;;;;;5.75;2.45;;;10.90;99.90;;;;;;5096678;28;20571;-78
2022/11/07 09:06:03;;;;;;;5.85;2.60;;;10.80;99.90;;;;;;5113843;28;20192;-78
2022/11/07 09:08:29;;;;;;;5.72;2.50;;;10.90;99.90;;;;;;5114023;28;20184;-78
2022/11/07 09:10:59;;;;;;;6.32;2.95;;;11.00;99.90;;;;;;5096344;28;20168;-78
2022/11/07 09:13:24;;;;;;;3.78;2.28;;;11.20;99.90;;;;;;5096014;28;20176;-78
2022/11/07 09:15:50;;;;;;;5.70;2.58;;;11.40;99.90;;;;;;5095871;28;20199;-78
2022/11/07 09:18:15;;;;;;;4.95;2.00;;;11.60;99.90;;;;;;5095631;28;20195;-78
2022/11/07 09:20:41;;;;;;;5.88;2.42;;;11.80;99.90;;;;;;5095611;28;20549;-78
2022/11/07 09:23:06;;;;;;;8.98;2.40;;;12.00;99.90;;;;;;5095604;28;20176;-78
2022/11/07 09:25:32;;;;;;;5.53;2.25;;;12.00;99.90;;;;;;5095525;28;20196;-78
2022/11/07 09:28:01;;;;;;;5.75;2.60;;;11.90;99.90;;;;;;5095672;28;20179;-78
2022/11/07 09:30:27;;;;;;;5.70;2.35;;;11.90;99.90;;;;;;5095581;28;20176;-78
2022/11/07 09:32:55;;;;;;;6.38;2.55;;;12.00;99.90;;;;;;5095563;28;20172;-78
2022/11/07 09:35:20;;;;;;;5.55;2.25;;;12.00;99.90;;;;;;5095520;28;20249;-78
2022/11/07 09:37:46;;;;;;;8.27;2.45;;;12.10;99.90;;;;;;5096335;28;20176;-78
2022/11/07 09:40:23;;;;;;;4.63;2.35;;;12.20;99.90;;;;;;5113763;28;20192;-77
2022/11/07 09:43:26;;;;;;;6.30;2.55;;;12.20;99.90;;;;;;5095520;28;20176;-77
2022/11/07 09:46:02;;;;;;;4.38;2.30;;;12.10;99.90;;;;;;5095538;28;20230;-77
2022/11/07 09:48:37;;;;;;;6.57;2.20;;;12.10;99.90;;;;;;5113593;28;20235;-77
2022/11/07 09:51:03;;;;;;;6.68;2.20;;;12.10;99.90;;;;;;5113570;28;20167;-77
2022/11/07 09:53:39;;;;;;;4.78;2.15;;;12.20;99.90;;;;;;5113768;28;20176;-77
2022/11/07 09:56:10;;;;;;;7.18;2.97;;;12.40;99.90;;;;;;5095376;28;20241;-77
2022/11/07 09:58:43;;;;;;;7.22;3.40;;;12.60;99.90;;;;;;5095233;28;20593;-77
2022/11/07 10:01:16;;;;;;;9.98;3.75;;;12.90;99.90;;;;;;5113535;28;20164;-78
2022/11/07 10:03:42;;;;;;;4.60;2.60;;;13.10;99.90;;;;;;5096186;28;20157;-78
2022/11/07 10:06:14;;;;;;;6.38;2.40;;;13.10;99.90;;;;;;5095262;28;20193;-78
2022/11/07 10:09:05;;;;;;;7.70;2.83;;;13.10;99.90;;;;;;5095334;28;20191;-78
2022/11/07 10:11:41;;;;;;;6.78;2.80;;;13.20;99.90;;;;;;5095119;28;20165;-78
2022/11/07 10:14:13;;;;;;;5.00;2.47;;;13.20;99.90;;;;;;5113625;28;20172;-78
2022/11/07 10:16:46;;;;;;;6.47;2.53;;;13.20;99.90;;;;;;5096611;28;20263;-78
2022/11/07 10:19:40;;;;;;;8.15;2.60;;;13.10;99.90;;;;;;5098676;28;20222;-78
2022/11/07 10:22:28;;;;;;;6.95;2.30;;;13.10;99.90;;;;;;5099570;28;20188;-78
2022/11/07 10:25:25;;;;;;;6.90;2.40;;;13.10;99.90;;;;;;5098538;28;20542;-78
2022/11/07 10:28:14;;;;;;;4.88;1.92;;;13.10;99.90;;;;;;5098975;28;20172;-78
2022/11/07 10:30:43;;;;;;;8.77;2.15;;;13.10;99.90;;;;;;5098161;28;20202;-78
2022/11/07 10:33:41;;;;;;;8.32;2.45;;;13.10;99.90;;;;;;5098482;28;20646;-78
2022/11/07 10:36:28;;;;;;;6.90;2.15;;;13.00;99.90;;;;;;5098344;28;20192;-78
2022/11/07 10:38:54;;;;;;;6.50;2.20;;;13.00;99.90;;;;;;5099156;28;20196;-78
2022/11/07 10:41:30;;;;;;;5.88;2.15;;;12.90;99.90;;;;;;5098567;28;20176;-77
2022/11/07 10:44:01;;;;;;;6.38;2.70;;;13.00;99.90;;;;;;5098373;28;20259;-78
2022/11/07 10:46:44;;;;;;;9.00;2.15;;;13.00;99.90;;;;;;5098957;28;20199;-78
2022/11/07 10:49:30;;;;;;;7.45;2.30;;;13.10;99.90;;;;;;5098295;28;20172;-78
2022/11/07 10:52:16;;;;;;;5.70;2.20;;;13.10;99.90;;;;;;5099334;28;20172;-78
2022/11/07 10:54:43;;;;;;;8.13;2.25;;;13.20;99.90;;;;;;5098889;28;20200;-78
2022/11/07 10:57:16;;;;;;;10.93;2.17;;;13.20;99.90;;;;;;5098028;28;20556;-78
2022/11/07 11:00:01;;;;;;;5.70;1.73;;;13.20;99.90;;;;;;5098856;28;20196;-78
2022/11/07 11:02:39;;;;;;;6.43;2.15;;;13.30;99.90;;;;;;5098505;28;20200;-78
2022/11/07 11:05:22;;;;;;;5.70;2.17;;;13.30;99.90;;;;;;5098691;28;20196;-78
2022/11/07 11:07:48;;;;;;;5.97;3.55;;;13.30;99.90;;;;;;5097897;28;20161;-78
2022/11/07 11:10:22;;;;;;;5.80;3.17;;;13.30;99.90;;;;;;5097624;28;20199;-78
2022/11/07 11:12:48;;;;;;;9.05;3.70;;;13.30;99.90;;;;;;5099020;28;20183;-78
2022/11/07 11:15:24;;;;;;;5.28;2.13;;;13.30;99.90;;;;;;5097609;28;20250;-78
2022/11/07 11:18:01;;;;;;;5.88;2.28;;;13.20;99.90;;;;;;5098439;28;20176;-78
2022/11/07 11:20:37;;;;;;;9.95;2.95;;;13.10;99.90;;;;;;5098117;28;20262;-78
2022/11/07 11:23:05;;;;;;;9.38;2.70;;;13.10;99.90;;;;;;5097637;28;20160;-78
2022/11/07 11:25:42;;;;;;;7.78;3.67;;;13.10;99.90;;;;;;5097401;28;20275;-78
2022/11/07 11:28:12;;;;;;;7.65;3.10;;;13.10;99.90;;;;;;5116835;28;20171;-78
2022/11/07 11:30:38;;;;;;;6.47;2.20;;;13.10;99.90;;;;;;5115635;28;20165;-78
2022/11/07 11:33:24;;;;;;;5.70;2.20;;;13.00;99.90;;;;;;5097317;28;20211;-78
2022/11/07 11:35:58;;;;;;;8.75;2.03;;;13.00;99.90;;;;;;5116410;28;20196;-78
2022/11/07 11:38:29;;;;;;;6.95;2.40;;;13.00;99.90;;;;;;5097156;28;20167;-78
2022/11/07 11:41:00;;;;;;;5.57;2.20;;;12.90;99.90;;;;;;5098321;28;20505;-78
2022/11/07 11:43:35;;;;;;;6.15;2.20;;;12.80;99.90;;;;;;5098044;28;20213;-78
2022/11/07 11:46:09;;;;;;;8.20;2.17;;;12.80;99.90;;;;;;5097569;28;20195;-78
2022/11/07 11:48:50;;;;;;;5.00;2.25;;;12.80;99.90;;;;;;5097126;28;20155;-78
2022/11/07 11:52:03;;;;;;;9.07;2.30;;;12.80;99.90;;;;;;5115311;28;20152;-78
2022/11/07 11:54:29;;;;;;;6.32;2.75;;;12.90;99.90;;;;;;5080626;28;20284;-78
2022/11/07 11:57:03;;;;;;;8.43;2.95;;;13.00;99.90;;;;;;5097419;28;20200;-78
2022/11/07 11:59:52;;;;;;;5.93;2.17;;;13.10;99.90;;;;;;5096973;28;20738;-78
2022/11/07 12:02:39;;;;;;;5.82;2.03;;;13.20;99.90;;;;;;5097777;28;20183;-78
2022/11/07 12:05:32;;;;;;;6.40;2.38;;;13.20;99.90;;;;;;5097526;28;20196;-78
2022/11/07 12:08:25;;;;;;;3.95;1.90;;;13.30;99.90;;;;;;5096789;28;20165;-78
2022/11/07 12:11:04;;;;;;;5.88;2.22;;;13.30;99.90;;;;;;5097484;28;20176;-78
2022/11/07 12:13:39;;;;;;;5.03;1.85;;;13.30;99.90;;;;;;5096930;28;20175;-78
2022/11/07 12:16:28;;;;;;;6.03;2.17;;;13.30;99.90;;;;;;5096958;28;20213;-78
2022/11/07 12:18:57;;;;;;;4.28;2.08;;;13.30;99.90;;;;;;5097301;28;20287;-78
2022/11/07 12:21:38;;;;;;;7.03;2.30;;;13.20;99.90;;;;;;5096415;28;20266;-78
2022/11/07 12:24:21;;;;;;;7.57;2.03;;;13.10;99.90;;;;;;5096436;28;20164;-78
2022/11/07 12:27:14;;;;;;;9.88;2.22;;;13.10;99.90;;;;;;5097205;28;20164;-78
2022/11/07 12:30:01;;;;;;;5.90;2.55;;;13.00;99.90;;;;;;5096316;28;20229;-78
2022/11/07 12:33:07;;;;;;;5.05;2.40;;;13.00;99.90;;;;;;5097412;28;20183;-78
2022/11/07 12:35:50;;;;;;;5.93;2.80;;;13.10;99.90;;;;;;5096139;28;20196;-78
2022/11/07 12:38:48;;;;;;;9.70;3.60;;;13.10;99.90;;;;;;5096844;28;20200;-78
2022/11/07 12:41:21;;;;;;;6.45;2.63;;;13.00;99.90;;;;;;5096746;28;20172;-78
2022/11/07 12:44:09;;;;;;;6.05;2.30;;;12.90;99.90;;;;;;5096056;28;20209;-78
2022/11/07 12:47:30;;;;;;;8.82;2.30;;;12.80;99.90;;;;;;5095967;28;20557;-78
2022/11/07 12:50:22;;;;;;;6.45;2.15;;;12.70;99.90;;;;;;5096054;28;20164;-78
2022/11/07 12:53:02;;;;;;;8.82;2.20;;;12.60;99.90;;;;;;5095984;28;20739;-79
2022/11/07 12:55:38;;;;;;;6.70;1.98;;;12.50;99.90;;;;;;5096608;28;20211;-78
2022/11/07 12:58:15;;;;;;;5.50;2.10;;;12.50;99.90;;;;;;5096446;28;20172;-78
2022/11/07 13:00:41;;;;;;;13.52;8.15;;;12.60;99.90;;;;;;5095710;28;20264;-78
2022/11/07 13:03:38;;;;;;;6.55;3.22;;;12.60;99.90;;;;;;5114269;28;20168;-78
2022/11/07 13:06:36;;;;;;;6.40;3.10;;;12.60;99.90;;;;;;5113862;28;20562;-78
2022/11/07 13:09:32;;;;;;;10.20;4.97;;;12.60;99.90;;;;;;5114219;28;20666;-78
2022/11/07 13:12:31;;;;;;;13.60;8.18;;;12.60;99.90;;;;;;5096478;28;20184;-78
2022/11/07 13:14:57;;;;;;;9.75;5.30;;;12.70;99.90;;;;;;5114573;28;20188;-77
2022/11/07 13:17:29;;;;;;;12.23;7.38;;;12.70;99.90;;;;;;5096174;28;20175;-77
2022/11/07 13:20:01;;;;;;;9.10;3.58;;;12.70;99.90;;;;;;5096427;28;20207;-78
2022/11/07 13:22:39;;;;;;;16.70;13.68;;;12.70;99.90;;;;;;5113826;28;20175;-78
2022/11/07 13:25:10;;;;;;;17.75;13.35;;;12.70;99.90;;;;;;5095954;28;20187;-78
2022/11/07 13:28:00;;;;;;;18.92;11.02;;;12.70;99.90;;;;;;5095852;28;20246;-78
2022/11/07 13:30:29;;;;;;;16.08;8.77;;;12.70;99.90;;;;;;5095061;28;20188;-78